createdAt,value
2023-02-04T00:10:56.996Z,13.40
2023-02-04T00:26:00.170Z,13.00
2023-02-04T00:41:03.508Z,14.50
2023-02-04T00:56:08.627Z,11.00
2023-02-04T01:11:13.887Z,11.40
2023-02-04T01:26:18.556Z,9.70
2023-02-04T01:41:22.615Z,8.90
2023-02-04T01:56:27.563Z,8.50
2023-02-04T02:11:33.263Z,8.30
2023-02-04T02:26:36.637Z,6.80
2023-02-04T02:41:40.463Z,5.90
2023-02-04T02:56:43.644Z,6.60
2023-02-04T03:11:47.048Z,4.30
2023-02-04T03:26:50.873Z,3.60
2023-02-04T03:41:54.196Z,4.40
2023-02-04T03:56:57.385Z,4.70
2023-02-04T04:12:01.195Z,3.90
2023-02-04T04:27:04.475Z,7.80
2023-02-04T04:42:07.809Z,15.60
2023-02-04T04:57:10.980Z,36.50
2023-02-04T05:12:14.250Z,14.40
2023-02-04T05:27:17.531Z,5.50
2023-02-04T05:42:20.930Z,4.20
2023-02-04T05:57:24.185Z,9.40
2023-02-04T06:12:27.396Z,12.00
2023-02-04T06:27:30.569Z,12.60
2023-02-04T06:42:33.879Z,10.30
2023-02-04T06:57:37.063Z,14.80
2023-02-04T07:12:40.424Z,12.80
2023-02-04T07:27:43.820Z,12.50
2023-02-04T07:42:46.976Z,26.50
2023-02-04T07:57:52.745Z,17.10
2023-02-04T08:12:56.102Z,15.50
2023-02-04T08:27:59.406Z,50.60
2023-02-04T08:43:04.959Z,35.50
2023-02-04T08:58:08.298Z,12.90
2023-02-04T09:13:12.029Z,13.80
2023-02-04T09:28:17.714Z,14.80
2023-02-04T09:43:25.962Z,37.40
2023-02-04T09:58:33.386Z,12.90
2023-02-04T10:13:52.517Z,17.80
2023-02-04T10:28:59.690Z,6.40
2023-02-04T10:44:14.882Z,6.70
2023-02-04T10:59:27.146Z,9.70
2023-02-04T11:14:31.862Z,7.50
2023-02-04T11:29:43.602Z,17.60
2023-02-04T11:44:53.726Z,11.40
2023-02-04T11:59:57.047Z,8.90
2023-02-04T12:15:13.731Z,16.70
2023-02-04T12:30:18.676Z,12.10
2023-02-04T12:45:22.018Z,7.70
2023-02-04T13:00:27.678Z,9.20
2023-02-04T13:15:31.526Z,22.20
2023-02-04T13:30:34.991Z,15.00
2023-02-04T13:45:38.517Z,8.00
2023-02-04T14:00:41.808Z,9.80
2023-02-04T14:15:45.200Z,11.40
2023-02-04T14:30:48.474Z,13.60
2023-02-04T14:45:51.825Z,14.10
2023-02-04T15:00:55.380Z,52.00
2023-02-04T15:15:58.736Z,35.20
2023-02-04T15:31:02.413Z,27.80
2023-02-04T15:46:05.812Z,35.20
2023-02-04T16:01:09.157Z,36.30
2023-02-04T16:16:12.584Z,47.40
2023-02-04T16:31:16.041Z,23.70
2023-02-04T16:46:19.866Z,24.20
2023-02-04T17:01:23.523Z,27.90
2023-02-04T17:16:27.707Z,20.60
2023-02-04T17:31:31.465Z,39.40
2023-02-04T17:46:35.419Z,27.90
2023-02-04T18:01:42.253Z,30.90
2023-02-04T18:16:46.772Z,16.90
2023-02-04T18:31:53.854Z,15.50
2023-02-04T18:46:57.921Z,29.20
2023-02-04T19:02:01.304Z,28.70
2023-02-04T19:17:07.764Z,29.60
2023-02-04T19:32:24.723Z,52.30
2023-02-04T19:47:32.921Z,43.30
2023-02-04T20:02:39.616Z,83.40
2023-02-04T20:17:48.890Z,122.50
2023-02-04T20:32:56.061Z,68.60
2023-02-04T20:53:59.535Z,38.50
2023-02-04T21:09:04.515Z,69.70
2023-02-04T21:24:09.002Z,56.40
2023-02-04T21:39:13.189Z,74.90
2023-02-04T21:54:16.772Z,51.00
2023-02-04T22:09:20.367Z,82.40
2023-02-04T22:24:25.710Z,72.60
2023-02-04T22:39:29.306Z,54.10
2023-02-04T22:54:32.769Z,37.50
2023-02-04T23:09:36.383Z,43.10
2023-02-04T23:24:41.060Z,45.70
2023-02-04T23:39:44.501Z,49.70
2023-02-04T23:54:53.233Z,31.60
